createdAt,value
2022-11-24T00:00:36.834Z,58.11
2022-11-24T00:03:04.767Z,56.22
2022-11-24T00:05:31.422Z,55.65
2022-11-24T00:07:57.897Z,54.87
2022-11-24T00:10:24.401Z,54.88
2022-11-24T00:12:51.053Z,55.77
2022-11-24T00:15:17.573Z,55.65
2022-11-24T00:17:44.053Z,55.13
2022-11-24T00:20:10.800Z,55.36
2022-11-24T00:22:37.311Z,55.01
2022-11-24T00:25:04.087Z,54.00
2022-11-24T00:27:30.576Z,55.31
2022-11-24T00:29:59.407Z,55.42
2022-11-24T00:32:30.060Z,54.16
2022-11-24T00:34:56.546Z,53.85
2022-11-24T00:37:23.048Z,56.11
2022-11-24T00:39:49.570Z,56.07
2022-11-24T00:42:16.244Z,54.80
2022-11-24T00:44:42.733Z,54.34
2022-11-24T00:47:09.320Z,54.35
2022-11-24T00:49:36.300Z,54.43
2022-11-24T00:52:02.826Z,55.23
2022-11-24T00:54:29.343Z,54.75
2022-11-24T00:56:55.838Z,54.81
2022-11-24T00:59:22.441Z,54.16
2022-11-24T01:01:48.963Z,54.15
2022-11-24T01:04:15.498Z,55.56
2022-11-24T01:06:42.030Z,53.45
2022-11-24T01:09:11.262Z,54.35
2022-11-24T01:11:56.448Z,53.61
2022-11-24T01:14:24.343Z,53.48
2022-11-24T01:16:51.284Z,54.24
2022-11-24T01:19:18.085Z,54.01
2022-11-24T01:21:44.580Z,53.84
2022-11-24T01:24:11.770Z,53.88
2022-11-24T01:26:38.853Z,54.32
2022-11-24T01:29:05.410Z,53.75
2022-11-24T01:31:32.776Z,53.54
2022-11-24T01:33:59.421Z,53.57
2022-11-24T01:36:25.982Z,53.38
2022-11-24T01:38:52.515Z,53.41
2022-11-24T01:41:26.080Z,54.56
2022-11-24T01:43:55.148Z,55.38
2022-11-24T01:46:44.543Z,53.60
2022-11-24T01:49:21.471Z,53.51
2022-11-24T01:52:11.288Z,53.21
2022-11-24T01:54:43.990Z,52.70
2022-11-24T01:57:19.640Z,52.84
2022-11-24T01:59:49.531Z,52.40
2022-11-24T02:02:22.053Z,52.41
2022-11-24T02:04:49.034Z,52.92
2022-11-24T02:07:15.851Z,53.65
2022-11-24T02:09:54.566Z,53.10
2022-11-24T02:12:22.725Z,52.96
2022-11-24T02:14:50.477Z,53.38
2022-11-24T02:17:17.180Z,51.93
2022-11-24T02:19:57.401Z,52.20
2022-11-24T02:22:53.667Z,52.89
2022-11-24T02:25:29.484Z,52.59
2022-11-24T02:27:56.813Z,51.86
2022-11-24T02:30:23.427Z,51.83
2022-11-24T02:32:51.068Z,51.86
2022-11-24T02:35:18.509Z,51.79
2022-11-24T02:37:45.020Z,51.78
2022-11-24T02:40:15.517Z,52.03
2022-11-24T02:42:45.926Z,51.86
2022-11-24T02:45:14.961Z,51.20
2022-11-24T02:47:41.534Z,51.32
2022-11-24T02:50:08.358Z,51.87
2022-11-24T02:52:34.863Z,52.69
2022-11-24T02:55:01.357Z,52.73
2022-11-24T02:57:27.856Z,52.81
2022-11-24T02:59:54.404Z,52.56
2022-11-24T03:02:20.987Z,51.74
2022-11-24T03:04:47.489Z,51.70
2022-11-24T03:07:14.700Z,51.47
2022-11-24T03:09:41.309Z,52.49
2022-11-24T03:12:07.872Z,52.60
2022-11-24T03:14:34.513Z,52.62
2022-11-24T03:17:01.128Z,52.57
2022-11-24T03:19:27.675Z,51.95
2022-11-24T03:21:54.156Z,52.27
2022-11-24T03:24:20.774Z,52.90
2022-11-24T03:26:47.268Z,52.65
2022-11-24T03:29:13.769Z,53.06
2022-11-24T03:31:40.308Z,52.59
2022-11-24T03:34:06.885Z,52.33
2022-11-24T03:36:33.360Z,52.29
2022-11-24T03:38:59.864Z,52.69
2022-11-24T03:41:26.374Z,52.79
2022-11-24T03:43:52.877Z,52.02
2022-11-24T03:46:19.485Z,52.61
2022-11-24T03:48:46.033Z,52.25
2022-11-24T03:51:12.569Z,51.66
2022-11-24T03:53:39.164Z,51.56
2022-11-24T03:56:05.785Z,52.08
2022-11-24T03:58:32.630Z,51.89
2022-11-24T04:00:59.470Z,52.20
2022-11-24T04:03:26.165Z,52.59
2022-11-24T04:05:52.836Z,52.42
2022-11-24T04:08:19.753Z,52.46
2022-11-24T04:10:50.766Z,53.17
2022-11-24T04:13:19.198Z,52.58
2022-11-24T04:15:45.771Z,53.42
2022-11-24T04:18:13.284Z,52.75
2022-11-24T04:20:41.204Z,52.13
2022-11-24T04:23:08.995Z,52.44
2022-11-24T04:25:36.296Z,52.25
2022-11-24T04:28:03.687Z,52.30
2022-11-24T04:30:30.261Z,51.72
2022-11-24T04:32:57.238Z,52.03
2022-11-24T04:35:23.793Z,51.83
2022-11-24T04:37:50.496Z,51.66
2022-11-24T04:40:17.570Z,51.56
2022-11-24T04:42:44.100Z,51.68
2022-11-24T04:45:11.387Z,52.07
2022-11-24T04:47:38.699Z,51.65
2022-11-24T04:50:07.591Z,51.60
2022-11-24T04:52:34.225Z,52.21
2022-11-24T04:55:00.777Z,52.70
2022-11-24T04:57:27.817Z,52.42
2022-11-24T04:59:54.663Z,52.48
2022-11-24T05:02:21.819Z,51.87
2022-11-24T05:04:48.627Z,52.03
2022-11-24T05:07:18.874Z,51.68
2022-11-24T05:10:05.348Z,52.06
2022-11-24T05:12:31.972Z,51.86
2022-11-24T05:14:59.639Z,51.98
2022-11-24T05:17:35.436Z,52.46
2022-11-24T05:20:02.539Z,52.45
2022-11-24T05:22:29.595Z,52.23
2022-11-24T05:24:56.148Z,52.53
2022-11-24T05:27:22.789Z,54.45
2022-11-24T05:29:49.318Z,52.74
2022-11-24T05:32:16.208Z,54.05
2022-11-24T05:34:43.216Z,52.54
2022-11-24T05:37:09.729Z,53.29
2022-11-24T05:39:36.901Z,53.52
2022-11-24T05:42:25.406Z,52.51
2022-11-24T05:44:52.650Z,53.65
2022-11-24T05:47:19.597Z,52.83
2022-11-24T05:49:46.353Z,53.29
2022-11-24T05:52:13.121Z,54.48
2022-11-24T05:54:39.686Z,52.65
2022-11-24T05:57:06.422Z,52.30
2022-11-24T05:59:33.755Z,52.13
2022-11-24T06:02:00.713Z,52.06
2022-11-24T06:04:27.750Z,51.81
2022-11-24T06:06:54.272Z,51.97
2022-11-24T06:09:20.901Z,51.74
2022-11-24T06:11:48.281Z,51.83
2022-11-24T06:14:14.792Z,51.99
2022-11-24T06:16:41.435Z,51.73
2022-11-24T06:19:10.042Z,51.35
2022-11-24T06:21:36.569Z,51.46
2022-11-24T06:24:03.419Z,51.44
2022-11-24T06:26:29.964Z,51.92
2022-11-24T06:28:56.458Z,52.50
2022-11-24T06:31:23.060Z,51.44
2022-11-24T06:33:49.636Z,51.50
2022-11-24T06:36:16.254Z,51.53
2022-11-24T06:38:42.878Z,51.41
2022-11-24T06:41:15.166Z,51.23
2022-11-24T06:43:41.906Z,50.75
2022-11-24T06:46:08.579Z,51.20
2022-11-24T06:48:35.693Z,51.13
2022-11-24T06:51:07.210Z,51.23
2022-11-24T06:53:37.845Z,50.93
2022-11-24T06:56:10.603Z,50.94
2022-11-24T06:58:46.490Z,50.85
2022-11-24T07:01:22.323Z,50.54
2022-11-24T07:03:49.995Z,50.46
2022-11-24T07:06:18.283Z,50.25
2022-11-24T07:08:45.324Z,49.92
2022-11-24T07:11:17.942Z,50.23
2022-11-24T07:13:45.530Z,50.05
2022-11-24T07:16:13.010Z,50.47
2022-11-24T07:18:39.598Z,50.08
2022-11-24T07:21:06.697Z,50.30
2022-11-24T07:23:33.233Z,50.71
2022-11-24T07:26:06.557Z,50.46
2022-11-24T07:28:34.361Z,50.28
2022-11-24T07:31:08.690Z,50.08
2022-11-24T07:33:35.632Z,50.48
2022-11-24T07:36:03.738Z,50.49
2022-11-24T07:38:31.604Z,49.99
2022-11-24T07:41:07.341Z,49.63
2022-11-24T07:43:35.204Z,49.42
2022-11-24T07:46:02.094Z,49.66
2022-11-24T07:48:28.810Z,49.79
2022-11-24T07:50:56.401Z,49.01
2022-11-24T07:53:23.080Z,48.84
2022-11-24T07:55:54.951Z,48.31
2022-11-24T07:58:22.901Z,48.32
2022-11-24T08:00:49.686Z,48.39
2022-11-24T08:03:16.308Z,47.89
2022-11-24T08:06:01.017Z,48.54
2022-11-24T08:08:33.449Z,48.20
2022-11-24T08:11:08.536Z,47.35
2022-11-24T08:13:36.311Z,47.56
2022-11-24T08:16:08.758Z,46.70
2022-11-24T08:18:37.171Z,46.56
2022-11-24T08:21:04.915Z,46.59
2022-11-24T08:23:32.235Z,46.14
2022-11-24T08:26:04.764Z,46.67
2022-11-24T08:28:31.892Z,46.82
2022-11-24T08:31:06.824Z,45.42
2022-11-24T08:33:33.899Z,45.02
2022-11-24T08:36:09.736Z,44.80
2022-11-24T08:38:36.742Z,47.40
2022-11-24T08:41:06.388Z,46.50
2022-11-24T08:43:33.273Z,46.22
2022-11-24T08:46:06.295Z,45.99
2022-11-24T08:48:33.553Z,46.33
2022-11-24T08:51:07.335Z,46.32
2022-11-24T08:53:33.982Z,45.20
2022-11-24T08:56:00.982Z,45.81
2022-11-24T08:58:29.386Z,45.60
2022-11-24T09:00:56.404Z,44.73
2022-11-24T09:03:22.927Z,45.61
2022-11-24T09:05:52.041Z,45.53
2022-11-24T09:08:19.001Z,44.50
2022-11-24T09:10:45.569Z,43.99
2022-11-24T09:13:12.133Z,43.95
2022-11-24T09:15:38.758Z,44.33
2022-11-24T09:18:05.433Z,43.73
2022-11-24T09:20:32.052Z,44.19
2022-11-24T09:22:58.577Z,42.75
2022-11-24T09:25:25.138Z,43.10
2022-11-24T09:27:51.800Z,42.26
2022-11-24T09:30:18.409Z,41.92
2022-11-24T09:32:44.953Z,41.70
2022-11-24T09:35:11.525Z,42.67
2022-11-24T09:37:38.245Z,42.09
2022-11-24T09:40:06.033Z,43.35
2022-11-24T09:42:52.108Z,43.16
2022-11-24T09:46:05.193Z,43.40
2022-11-24T09:48:38.370Z,41.83
2022-11-24T09:51:09.411Z,42.85
2022-11-24T09:53:56.634Z,42.34
2022-11-24T09:56:33.456Z,43.86
2022-11-24T09:59:12.672Z,43.67
2022-11-24T10:01:41.975Z,43.77
2022-11-24T10:04:35.093Z,41.77
2022-11-24T10:07:07.607Z,41.23
2022-11-24T10:09:55.027Z,42.39
2022-11-24T10:12:49.777Z,43.59
2022-11-24T10:15:28.424Z,44.75
2022-11-24T10:18:28.861Z,45.66
2022-11-24T10:21:20.765Z,46.46
2022-11-24T10:24:19.345Z,48.52
2022-11-24T10:27:17.185Z,49.32
2022-11-24T10:29:44.524Z,49.95
2022-11-24T10:32:18.701Z,52.28
2022-11-24T10:34:49.859Z,54.93
2022-11-24T10:37:32.742Z,55.16
2022-11-24T10:40:58.195Z,56.83
2022-11-24T10:43:15.071Z,55.68
2022-11-24T10:45:41.863Z,57.08
2022-11-24T10:48:18.489Z,56.81
2022-11-24T10:50:45.136Z,57.45
2022-11-24T10:53:30.702Z,57.38
2022-11-24T10:55:57.161Z,57.72
2022-11-24T10:58:30.538Z,58.91
2022-11-24T11:01:13.195Z,57.67
2022-11-24T11:03:59.552Z,57.08
2022-11-24T11:06:31.566Z,56.86
2022-11-24T11:09:07.245Z,57.45
2022-11-24T11:11:41.745Z,58.48
2022-11-24T11:14:11.094Z,57.11
2022-11-24T11:16:51.072Z,57.49
2022-11-24T11:19:50.634Z,57.39
2022-11-24T11:22:37.361Z,58.39
2022-11-24T11:25:19.895Z,57.93
2022-11-24T11:27:46.740Z,57.29
2022-11-24T11:36:11.590Z,59.21
2022-11-24T11:38:39.867Z,58.06
2022-11-24T11:41:14.191Z,58.53
2022-11-24T11:43:41.297Z,58.07
2022-11-24T11:46:07.954Z,57.82
2022-11-24T11:48:43.078Z,58.72
2022-11-24T11:51:25.875Z,58.48
2022-11-24T11:54:02.552Z,58.42
2022-11-24T11:56:48.595Z,58.20
2022-11-24T11:59:31.550Z,58.73
2022-11-24T12:02:20.237Z,58.55
2022-11-24T12:05:00.644Z,59.42
2022-11-24T12:07:51.755Z,58.80
2022-11-24T12:10:50.669Z,59.65
2022-11-24T12:13:40.900Z,58.30
2022-11-24T12:16:20.584Z,58.16
2022-11-24T12:18:58.876Z,58.27
2022-11-24T12:21:35.611Z,57.62
2022-11-24T12:24:22.841Z,58.37
2022-11-24T12:27:00.998Z,58.31
2022-11-24T12:29:33.719Z,57.53
2022-11-24T12:32:38.767Z,58.29
2022-11-24T12:35:34.837Z,58.71
2022-11-24T12:38:09.176Z,58.01
2022-11-24T12:41:18.256Z,58.26
2022-11-24T12:43:52.696Z,58.09
2022-11-24T12:46:50.618Z,58.78
2022-11-24T12:49:32.468Z,58.78
2022-11-24T12:52:20.631Z,58.58
2022-11-24T12:54:47.152Z,59.71
2022-11-24T12:57:17.623Z,60.46
2022-11-24T12:59:58.830Z,60.88
2022-11-24T13:02:41.317Z,60.37
2022-11-24T13:05:31.977Z,59.22
2022-11-24T13:08:02.719Z,60.24
2022-11-24T13:10:55.751Z,59.42
2022-11-24T13:13:30.631Z,59.40
2022-11-24T13:18:59.184Z,58.47
2022-11-24T13:21:35.828Z,58.48
2022-11-24T13:26:53.809Z,58.91
2022-11-24T13:29:34.286Z,60.93
2022-11-24T13:32:00.820Z,60.09
2022-11-24T13:34:39.589Z,59.85
2022-11-24T13:37:35.547Z,59.57
2022-11-24T13:40:11.708Z,59.03
2022-11-24T13:43:10.440Z,58.56
2022-11-24T13:45:40.495Z,58.17
2022-11-24T13:48:33.771Z,57.88
2022-11-24T13:51:01.424Z,58.12
2022-11-24T13:53:40.890Z,58.47
2022-11-24T13:56:22.418Z,58.60
2022-11-24T13:58:58.203Z,58.36
2022-11-24T14:01:28.417Z,58.11
2022-11-24T14:09:47.955Z,58.32
2022-11-24T14:12:23.203Z,58.31
2022-11-24T14:14:51.653Z,58.15
2022-11-24T14:17:26.971Z,58.25
2022-11-24T14:19:58.189Z,58.35
2022-11-24T14:22:41.174Z,58.53
2022-11-24T14:25:30.962Z,58.61
2022-11-24T14:28:02.668Z,57.83
2022-11-24T14:30:29.660Z,57.70
2022-11-24T14:32:57.926Z,58.79
2022-11-24T14:35:26.450Z,54.97
2022-11-24T14:37:56.266Z,53.59
2022-11-24T14:40:38.324Z,53.16
2022-11-24T14:43:13.430Z,54.20
2022-11-24T14:45:52.665Z,52.63
2022-11-24T14:48:31.666Z,53.35
2022-11-24T14:51:08.748Z,53.10
2022-11-24T14:53:35.869Z,53.54
2022-11-24T14:56:14.048Z,53.71
2022-11-24T14:58:42.468Z,53.82
2022-11-24T15:01:22.167Z,54.06
2022-11-24T15:04:38.763Z,54.69
2022-11-24T15:07:26.113Z,54.98
2022-11-24T15:09:55.347Z,54.90
2022-11-24T15:12:42.489Z,55.57
2022-11-24T15:15:15.061Z,55.51
2022-11-24T15:17:54.741Z,55.90
2022-11-24T15:20:30.276Z,56.21
2022-11-24T15:23:23.497Z,55.86
2022-11-24T15:26:10.851Z,55.84
2022-11-24T15:28:37.666Z,56.22
2022-11-24T15:31:06.684Z,55.67
2022-11-24T15:33:33.217Z,56.01
2022-11-24T15:36:00.052Z,55.97
2022-11-24T15:38:27.040Z,56.02
2022-11-24T15:40:55.422Z,56.16
2022-11-24T15:43:28.181Z,56.12
2022-11-24T15:45:54.894Z,56.27
2022-11-24T15:48:21.929Z,56.49
2022-11-24T15:50:48.926Z,56.52
2022-11-24T15:53:21.829Z,56.86
2022-11-24T15:55:49.197Z,56.73
2022-11-24T15:58:16.167Z,56.44
2022-11-24T16:00:44.203Z,56.29
2022-11-24T16:03:44.459Z,56.16
2022-11-24T16:05:57.968Z,56.30
2022-11-24T16:08:24.673Z,56.34
2022-11-24T16:10:51.320Z,57.19
2022-11-24T16:13:17.875Z,57.45
2022-11-24T16:15:45.490Z,58.02
2022-11-24T16:18:14.708Z,57.45
2022-11-24T16:20:41.409Z,57.71
2022-11-24T16:23:07.940Z,57.58
2022-11-24T16:25:34.537Z,57.88
2022-11-24T16:28:01.030Z,57.53
2022-11-24T16:30:27.553Z,57.72
2022-11-24T16:32:54.097Z,57.83
2022-11-24T16:35:20.813Z,57.69
2022-11-24T16:37:47.995Z,58.30
2022-11-24T16:40:14.606Z,57.39
2022-11-24T16:42:41.255Z,57.27
2022-11-24T16:45:11.989Z,57.13
2022-11-24T16:47:40.998Z,56.83
2022-11-24T16:50:09.706Z,57.37
2022-11-24T16:52:36.499Z,57.04
2022-11-24T16:55:03.972Z,57.06
2022-11-24T16:57:30.486Z,57.33
2022-11-24T16:59:57.033Z,57.02
2022-11-24T17:02:23.625Z,57.43
2022-11-24T17:04:52.365Z,57.40
2022-11-24T17:07:20.298Z,57.48
2022-11-24T17:09:47.154Z,57.34
2022-11-24T17:12:13.680Z,56.83
2022-11-24T17:14:40.226Z,57.48
2022-11-24T17:17:06.714Z,57.50
2022-11-24T17:19:33.285Z,57.06
2022-11-24T17:21:59.861Z,57.24
2022-11-24T17:24:26.391Z,57.08
2022-11-24T17:26:53.217Z,57.15
2022-11-24T17:29:19.856Z,57.04
2022-11-24T17:31:46.512Z,57.20
2022-11-24T17:34:13.425Z,57.32
2022-11-24T17:36:41.425Z,57.39
2022-11-24T17:39:08.012Z,57.36
2022-11-24T17:41:35.044Z,57.56
2022-11-24T17:44:01.723Z,57.80
2022-11-24T17:46:29.748Z,57.79
2022-11-24T17:48:57.124Z,57.30
2022-11-24T17:51:25.367Z,57.13
2022-11-24T17:53:53.609Z,57.05
2022-11-24T17:56:25.498Z,57.26
2022-11-24T17:58:56.571Z,57.07
2022-11-24T18:01:23.523Z,57.06
2022-11-24T18:03:53.449Z,57.33
2022-11-24T18:06:20.890Z,57.54
2022-11-24T18:08:48.265Z,57.34
2022-11-24T18:11:24.623Z,57.70
2022-11-24T18:14:00.247Z,57.59
2022-11-24T18:16:29.752Z,57.52
2022-11-24T18:19:07.911Z,57.81
2022-11-24T18:21:35.208Z,57.70
2022-11-24T18:24:01.847Z,57.75
2022-11-24T18:26:28.633Z,57.93
2022-11-24T18:28:55.187Z,57.93
2022-11-24T18:31:22.305Z,57.82
2022-11-24T18:33:48.889Z,57.88
2022-11-24T18:36:23.574Z,57.57
2022-11-24T18:38:53.827Z,57.70
2022-11-24T18:41:21.030Z,57.78
2022-11-24T18:43:47.884Z,57.74
2022-11-24T18:46:16.710Z,57.88
2022-11-24T18:48:44.580Z,58.08
2022-11-24T18:51:15.084Z,57.76
2022-11-24T18:53:43.004Z,57.69
2022-11-24T18:56:13.435Z,57.77
2022-11-24T18:58:40.185Z,57.53
2022-11-24T19:01:12.837Z,57.80
2022-11-24T19:03:47.847Z,57.69
2022-11-24T19:06:20.127Z,57.64
2022-11-24T19:08:47.340Z,57.46
2022-11-24T19:11:18.720Z,57.40
2022-11-24T19:13:45.287Z,57.70
2022-11-24T19:16:12.289Z,57.51
2022-11-24T19:18:38.981Z,56.87
2022-11-24T19:21:05.967Z,57.11
2022-11-24T19:23:32.483Z,57.25
2022-11-24T19:26:06.299Z,57.02
2022-11-24T19:28:33.552Z,56.51
2022-11-24T19:31:11.142Z,56.95
2022-11-24T19:33:38.071Z,56.83
2022-11-24T19:36:07.957Z,56.67
2022-11-24T19:38:35.283Z,56.71
2022-11-24T19:41:07.818Z,56.79
2022-11-24T19:43:34.945Z,56.78
2022-11-24T19:46:06.460Z,56.91
2022-11-24T19:48:42.765Z,57.01
2022-11-24T19:51:12.429Z,56.99
2022-11-24T19:53:39.025Z,57.07
2022-11-24T19:56:13.199Z,57.36
2022-11-24T19:58:40.351Z,57.10
2022-11-24T20:01:15.727Z,56.99
2022-11-24T20:03:44.108Z,56.91
2022-11-24T20:06:12.515Z,57.13
2022-11-24T20:08:39.869Z,55.82
2022-11-24T20:11:09.545Z,55.79
2022-11-24T20:13:37.912Z,55.30
2022-11-24T20:16:06.580Z,55.29
2022-11-24T20:18:37.540Z,55.13
2022-11-24T20:21:16.843Z,55.14
2022-11-24T20:23:44.800Z,55.25
2022-11-24T20:26:17.137Z,54.63
2022-11-24T20:28:43.635Z,54.70
2022-11-24T20:31:14.295Z,54.51
2022-11-24T20:33:41.815Z,54.62
2022-11-24T20:36:14.508Z,54.56
2022-11-24T20:38:42.552Z,54.73
2022-11-24T20:41:12.507Z,54.56
2022-11-24T20:43:39.960Z,54.86
2022-11-24T20:46:21.820Z,56.17
2022-11-24T20:48:49.089Z,56.25
2022-11-24T20:51:22.058Z,56.50
2022-11-24T20:53:50.030Z,56.76
2022-11-24T20:56:19.422Z,56.73
2022-11-24T20:58:46.715Z,56.74
2022-11-24T21:01:20.444Z,56.68
2022-11-24T21:03:52.347Z,56.82
2022-11-24T21:06:18.884Z,56.73
2022-11-24T21:08:45.454Z,56.81
2022-11-24T21:11:13.549Z,56.96
2022-11-24T21:13:43.676Z,56.76
2022-11-24T21:16:17.874Z,56.56
2022-11-24T21:18:46.145Z,56.65
2022-11-24T21:21:14.304Z,56.65
2022-11-24T21:23:40.799Z,56.84
2022-11-24T21:26:13.164Z,56.79
2022-11-24T21:28:42.902Z,56.55
2022-11-24T21:31:15.310Z,56.94
2022-11-24T21:33:45.282Z,56.82
2022-11-24T21:36:14.421Z,56.79
2022-11-24T21:38:41.862Z,56.78
2022-11-24T21:41:09.982Z,56.81
2022-11-24T21:43:36.919Z,56.84
2022-11-24T21:46:06.213Z,56.60
2022-11-24T21:48:34.596Z,56.62
2022-11-24T21:51:02.917Z,56.89
2022-11-24T21:53:36.725Z,57.61
2022-11-24T21:56:05.540Z,57.13
2022-11-24T21:58:33.339Z,57.43
2022-11-24T22:01:04.555Z,57.70
2022-11-24T22:03:31.866Z,57.62
2022-11-24T22:06:00.057Z,57.43
2022-11-24T22:08:28.303Z,57.14
2022-11-24T22:11:01.420Z,56.93
2022-11-24T22:13:27.976Z,56.62
2022-11-24T22:16:01.436Z,56.45
2022-11-24T22:18:34.696Z,56.51
2022-11-24T22:21:04.705Z,56.14
2022-11-24T22:23:32.279Z,56.43
2022-11-24T22:26:12.693Z,56.33
2022-11-24T22:28:39.519Z,56.44
2022-11-24T22:31:12.693Z,56.36
2022-11-24T22:33:39.346Z,56.51
2022-11-24T22:36:06.518Z,56.53
2022-11-24T22:38:34.339Z,56.61
2022-11-24T22:41:09.620Z,57.43
2022-11-24T22:43:37.421Z,56.55
2022-11-24T22:46:26.019Z,56.65
2022-11-24T22:48:54.259Z,56.85
2022-11-24T22:51:23.967Z,57.01
2022-11-24T22:53:52.584Z,56.97
2022-11-24T22:56:19.875Z,56.88
2022-11-24T22:58:46.726Z,57.14
2022-11-24T23:01:18.458Z,57.04
2022-11-24T23:03:45.972Z,56.40
2022-11-24T23:06:15.521Z,56.31
2022-11-24T23:08:42.857Z,56.19
2022-11-24T23:11:15.427Z,56.19
2022-11-24T23:13:43.602Z,56.05
2022-11-24T23:16:18.327Z,55.71
2022-11-24T23:18:51.064Z,55.93
2022-11-24T23:21:22.176Z,54.48
2022-11-24T23:23:49.893Z,54.22
2022-11-24T23:26:22.565Z,54.19
2022-11-24T23:28:49.438Z,54.29
2022-11-24T23:31:18.525Z,54.08
2022-11-24T23:33:45.249Z,54.04
2022-11-24T23:36:19.884Z,53.81
2022-11-24T23:38:47.489Z,53.88
2022-11-24T23:41:16.912Z,53.63
2022-11-24T23:43:44.108Z,53.68
2022-11-24T23:46:20.375Z,54.17
2022-11-24T23:48:47.653Z,54.28
2022-11-24T23:51:16.953Z,54.47
2022-11-24T23:53:44.037Z,54.45
2022-11-24T23:56:16.302Z,54.11
2022-11-24T23:58:42.784Z,54.16
